Absecon City, New Jersey
Current Conditions -  °F | °C
As of 2:54 PM on Monday 24 Nov 2014 (Local Time) from KACY Reporting Station
Clear Clear  
Wind Chill: 65°   Ceiling: Unl
Heat Index: 65°   Visibility: 10mi
Dew Point: 58°   Wind: 15mph
Humidity: 78%   Direction: 200°SSW
Pressure: 29.66"   Gusts: 22mph
Location:  39.4315°N, 74.5003°W
Report Text: KACY 241954Z 20013G19KT 10SM CLR 18/14 A2966 RMK AO2 SLP041 T01830144
Loading
Personal Weather Stations






























Interactive Weather Map New forecast layout! Learn more

10-Day Weather Forecast

Advertisements
Track Severe Weather on mobile